sensor_id;sensor_type;location;lat;lon;timestamp;P1;durP1;ratioP1;P2;durP2;ratioP2
71730;SDS011;65964;43.496;3.710;2023-11-19T00:02:21;15.05;;;7.53;;
71730;SDS011;65964;43.496;3.710;2023-11-19T00:04:47;14.45;;;7.85;;
71730;SDS011;65964;43.496;3.710;2023-11-19T00:07:13;15.52;;;7.57;;
71730;SDS011;65964;43.496;3.710;2023-11-19T00:09:39;14.23;;;7.45;;
71730;SDS011;65964;43.496;3.710;2023-11-19T00:12:06;13.63;;;7.15;;
71730;SDS011;65964;43.496;3.710;2023-11-19T00:14:32;11.70;;;5.63;;
71730;SDS011;65964;43.496;3.710;2023-11-19T00:16:59;13.27;;;6.25;;
71730;SDS011;65964;43.496;3.710;2023-11-19T00:19:25;13.10;;;5.43;;
71730;SDS011;65964;43.496;3.710;2023-11-19T00:21:51;12.68;;;5.68;;
71730;SDS011;65964;43.496;3.710;2023-11-19T00:24:18;10.27;;;5.68;;
71730;SDS011;65964;43.496;3.710;2023-11-19T00:26:45;9.88;;;5.18;;
71730;SDS011;65964;43.496;3.710;2023-11-19T00:29:11;10.27;;;5.55;;
71730;SDS011;65964;43.496;3.710;2023-11-19T00:31:38;9.00;;;4.95;;
71730;SDS011;65964;43.496;3.710;2023-11-19T00:34:05;8.77;;;4.68;;
71730;SDS011;65964;43.496;3.710;2023-11-19T00:36:31;11.55;;;6.00;;
71730;SDS011;65964;43.496;3.710;2023-11-19T00:38:57;8.05;;;4.47;;
71730;SDS011;65964;43.496;3.710;2023-11-19T00:41:23;8.75;;;4.30;;
71730;SDS011;65964;43.496;3.710;2023-11-19T00:43:50;7.88;;;3.72;;
71730;SDS011;65964;43.496;3.710;2023-11-19T00:46:16;8.00;;;3.97;;
71730;SDS011;65964;43.496;3.710;2023-11-19T00:48:42;7.82;;;4.22;;
71730;SDS011;65964;43.496;3.710;2023-11-19T00:51:08;9.88;;;4.10;;
71730;SDS011;65964;43.496;3.710;2023-11-19T00:53:34;8.23;;;4.22;;
71730;SDS011;65964;43.496;3.710;2023-11-19T00:56:00;8.88;;;4.60;;
71730;SDS011;65964;43.496;3.710;2023-11-19T00:58:26;10.27;;;4.22;;
71730;SDS011;65964;43.496;3.710;2023-11-19T01:00:52;9.98;;;4.40;;
71730;SDS011;65964;43.496;3.710;2023-11-19T01:03:18;9.68;;;4.40;;
71730;SDS011;65964;43.496;3.710;2023-11-19T01:05:44;9.00;;;4.45;;
71730;SDS011;65964;43.496;3.710;2023-11-19T01:08:12;11.43;;;4.40;;
71730;SDS011;65964;43.496;3.710;2023-11-19T01:10:38;8.15;;;4.07;;
71730;SDS011;65964;43.496;3.710;2023-11-19T01:13:04;10.32;;;4.05;;
71730;SDS011;65964;43.496;3.710;2023-11-19T01:15:33;10.13;;;4.47;;
71730;SDS011;65964;43.496;3.710;2023-11-19T01:17:59;7.50;;;3.80;;
71730;SDS011;65964;43.496;3.710;2023-11-19T01:20:27;12.07;;;4.70;;
71730;SDS011;65964;43.496;3.710;2023-11-19T01:22:53;8.52;;;3.92;;
71730;SDS011;65964;43.496;3.710;2023-11-19T01:25:19;9.52;;;4.38;;
71730;SDS011;65964;43.496;3.710;2023-11-19T01:27:45;7.82;;;3.92;;
71730;SDS011;65964;43.496;3.710;2023-11-19T01:30:11;9.98;;;4.10;;
71730;SDS011;65964;43.496;3.710;2023-11-19T01:32:38;7.80;;;3.83;;
71730;SDS011;65964;43.496;3.710;2023-11-19T01:35:04;9.20;;;4.22;;
71730;SDS011;65964;43.496;3.710;2023-11-19T01:37:30;9.55;;;4.18;;
71730;SDS011;65964;43.496;3.710;2023-11-19T01:39:57;7.28;;;4.00;;
71730;SDS011;65964;43.496;3.710;2023-11-19T01:42:23;7.93;;;4.05;;
71730;SDS011;65964;43.496;3.710;2023-11-19T01:44:59;8.27;;;4.20;;
71730;SDS011;65964;43.496;3.710;2023-11-19T01:47:29;8.25;;;4.20;;
71730;SDS011;65964;43.496;3.710;2023-11-19T01:49:56;10.63;;;4.53;;
71730;SDS011;65964;43.496;3.710;2023-11-19T01:52:22;8.75;;;3.70;;
71730;SDS011;65964;43.496;3.710;2023-11-19T01:54:49;7.57;;;4.38;;
71730;SDS011;65964;43.496;3.710;2023-11-19T01:57:16;9.00;;;4.18;;
71730;SDS011;65964;43.496;3.710;2023-11-19T01:59:42;12.45;;;4.32;;
71730;SDS011;65964;43.496;3.710;2023-11-19T02:02:09;6.78;;;3.72;;
71730;SDS011;65964;43.496;3.710;2023-11-19T02:04:37;9.18;;;4.00;;
71730;SDS011;65964;43.496;3.710;2023-11-19T02:07:03;8.75;;;4.05;;
71730;SDS011;65964;43.496;3.710;2023-11-19T02:09:29;8.77;;;4.50;;
71730;SDS011;65964;43.496;3.710;2023-11-19T02:11:55;9.85;;;4.05;;
71730;SDS011;65964;43.496;3.710;2023-11-19T02:14:22;9.73;;;4.75;;
71730;SDS011;65964;43.496;3.710;2023-11-19T02:16:50;7.72;;;3.97;;
71730;SDS011;65964;43.496;3.710;2023-11-19T02:19:18;8.38;;;4.32;;
71730;SDS011;65964;43.496;3.710;2023-11-19T02:21:44;8.07;;;3.95;;
71730;SDS011;65964;43.496;3.710;2023-11-19T02:24:11;7.07;;;4.10;;
71730;SDS011;65964;43.496;3.710;2023-11-19T02:29:03;11.00;;;4.93;;
71730;SDS011;65964;43.496;3.710;2023-11-19T02:31:31;8.63;;;4.60;;
71730;SDS011;65964;43.496;3.710;2023-11-19T02:33:59;8.75;;;4.60;;
71730;SDS011;65964;43.496;3.710;2023-11-19T02:36:27;10.77;;;4.53;;
71730;SDS011;65964;43.496;3.710;2023-11-19T02:38:53;10.23;;;5.00;;
71730;SDS011;65964;43.496;3.710;2023-11-19T02:41:20;10.27;;;4.50;;
71730;SDS011;65964;43.496;3.710;2023-11-19T02:43:46;8.68;;;4.20;;
71730;SDS011;65964;43.496;3.710;2023-11-19T02:46:13;9.75;;;4.50;;
71730;SDS011;65964;43.496;3.710;2023-11-19T02:48:42;10.65;;;5.60;;
71730;SDS011;65964;43.496;3.710;2023-11-19T02:51:09;8.48;;;5.32;;
71730;SDS011;65964;43.496;3.710;2023-11-19T02:53:35;11.05;;;5.30;;
71730;SDS011;65964;43.496;3.710;2023-11-19T02:56:04;9.45;;;5.00;;
71730;SDS011;65964;43.496;3.710;2023-11-19T02:58:45;9.50;;;4.82;;
71730;SDS011;65964;43.496;3.710;2023-11-19T03:01:11;11.40;;;6.65;;
71730;SDS011;65964;43.496;3.710;2023-11-19T03:03:47;10.65;;;5.90;;
71730;SDS011;65964;43.496;3.710;2023-11-19T03:06:19;13.10;;;5.97;;
71730;SDS011;65964;43.496;3.710;2023-11-19T03:08:45;10.18;;;5.22;;
71730;SDS011;65964;43.496;3.710;2023-11-19T03:11:10;12.55;;;5.63;;
71730;SDS011;65964;43.496;3.710;2023-11-19T03:13:36;9.25;;;5.22;;
71730;SDS011;65964;43.496;3.710;2023-11-19T03:16:02;10.73;;;5.55;;
71730;SDS011;65964;43.496;3.710;2023-11-19T03:18:29;12.02;;;5.90;;
71730;SDS011;65964;43.496;3.710;2023-11-19T03:20:55;10.15;;;5.32;;
71730;SDS011;65964;43.496;3.710;2023-11-19T03:23:23;10.48;;;4.60;;
71730;SDS011;65964;43.496;3.710;2023-11-19T03:25:52;7.68;;;4.40;;
71730;SDS011;65964;43.496;3.710;2023-11-19T03:28:18;8.32;;;4.78;;
71730;SDS011;65964;43.496;3.710;2023-11-19T03:30:44;10.73;;;5.28;;
71730;SDS011;65964;43.496;3.710;2023-11-19T03:33:10;8.88;;;5.68;;
71730;SDS011;65964;43.496;3.710;2023-11-19T03:35:36;9.82;;;5.35;;
71730;SDS011;65964;43.496;3.710;2023-11-19T03:38:02;9.68;;;5.07;;
71730;SDS011;65964;43.496;3.710;2023-11-19T03:40:28;18.98;;;8.32;;
71730;SDS011;65964;43.496;3.710;2023-11-19T03:42:58;17.55;;;7.20;;
71730;SDS011;65964;43.496;3.710;2023-11-19T03:45:24;11.85;;;6.22;;
71730;SDS011;65964;43.496;3.710;2023-11-19T03:47:50;10.00;;;5.60;;
71730;SDS011;65964;43.496;3.710;2023-11-19T03:50:16;8.93;;;4.97;;
71730;SDS011;65964;43.496;3.710;2023-11-19T03:52:45;9.60;;;5.03;;
71730;SDS011;65964;43.496;3.710;2023-11-19T03:55:11;10.98;;;5.03;;
71730;SDS011;65964;43.496;3.710;2023-11-19T03:57:37;9.02;;;5.10;;
71730;SDS011;65964;43.496;3.710;2023-11-19T04:00:03;9.25;;;4.80;;
71730;SDS011;65964;43.496;3.710;2023-11-19T04:02:38;9.20;;;4.90;;
71730;SDS011;65964;43.496;3.710;2023-11-19T04:05:04;10.73;;;5.25;;
71730;SDS011;65964;43.496;3.710;2023-11-19T04:07:31;9.07;;;4.75;;
71730;SDS011;65964;43.496;3.710;2023-11-19T04:09:57;10.00;;;4.70;;
71730;SDS011;65964;43.496;3.710;2023-11-19T04:12:23;7.85;;;4.40;;
71730;SDS011;65964;43.496;3.710;2023-11-19T04:14:49;8.57;;;4.20;;
71730;SDS011;65964;43.496;3.710;2023-11-19T04:17:15;8.77;;;4.20;;
71730;SDS011;65964;43.496;3.710;2023-11-19T04:19:41;7.65;;;4.30;;
71730;SDS011;65964;43.496;3.710;2023-11-19T04:22:08;8.48;;;4.20;;
71730;SDS011;65964;43.496;3.710;2023-11-19T04:24:34;7.82;;;4.30;;
71730;SDS011;65964;43.496;3.710;2023-11-19T04:27:00;9.02;;;5.10;;
71730;SDS011;65964;43.496;3.710;2023-11-19T04:29:26;8.07;;;4.25;;
71730;SDS011;65964;43.496;3.710;2023-11-19T04:31:52;10.27;;;5.68;;
71730;SDS011;65964;43.496;3.710;2023-11-19T04:34:18;9.52;;;5.50;;
71730;SDS011;65964;43.496;3.710;2023-11-19T04:36:44;7.50;;;4.60;;
71730;SDS011;65964;43.496;3.710;2023-11-19T04:39:10;8.65;;;4.40;;
71730;SDS011;65964;43.496;3.710;2023-11-19T04:41:49;9.05;;;4.95;;
71730;SDS011;65964;43.496;3.710;2023-11-19T04:44:18;10.57;;;5.03;;
71730;SDS011;65964;43.496;3.710;2023-11-19T04:46:44;8.60;;;4.50;;
71730;SDS011;65964;43.496;3.710;2023-11-19T04:49:11;7.75;;;4.60;;
71730;SDS011;65964;43.496;3.710;2023-11-19T04:51:38;8.32;;;4.88;;
71730;SDS011;65964;43.496;3.710;2023-11-19T04:54:04;12.13;;;6.55;;
71730;SDS011;65964;43.496;3.710;2023-11-19T04:56:31;12.85;;;6.55;;
71730;SDS011;65964;43.496;3.710;2023-11-19T04:58:57;12.23;;;6.22;;
71730;SDS011;65964;43.496;3.710;2023-11-19T05:01:23;9.23;;;5.32;;
71730;SDS011;65964;43.496;3.710;2023-11-19T05:03:50;9.07;;;4.90;;
71730;SDS011;65964;43.496;3.710;2023-11-19T05:06:16;10.43;;;5.20;;
71730;SDS011;65964;43.496;3.710;2023-11-19T05:08:42;11.85;;;4.93;;
71730;SDS011;65964;43.496;3.710;2023-11-19T05:11:08;8.90;;;4.40;;
71730;SDS011;65964;43.496;3.710;2023-11-19T05:13:37;7.18;;;4.25;;
71730;SDS011;65964;43.496;3.710;2023-11-19T05:16:03;9.43;;;4.78;;
71730;SDS011;65964;43.496;3.710;2023-11-19T05:18:29;8.40;;;4.80;;
71730;SDS011;65964;43.496;3.710;2023-11-19T05:20:55;10.00;;;4.00;;
71730;SDS011;65964;43.496;3.710;2023-11-19T05:23:21;9.27;;;4.40;;
71730;SDS011;65964;43.496;3.710;2023-11-19T05:25:47;10.73;;;4.22;;
71730;SDS011;65964;43.496;3.710;2023-11-19T05:28:13;11.95;;;4.82;;
71730;SDS011;65964;43.496;3.710;2023-11-19T05:30:39;8.35;;;4.18;;
71730;SDS011;65964;43.496;3.710;2023-11-19T05:33:05;9.98;;;3.97;;
71730;SDS011;65964;43.496;3.710;2023-11-19T05:35:33;7.53;;;4.00;;
71730;SDS011;65964;43.496;3.710;2023-11-19T05:38:00;8.80;;;3.83;;
71730;SDS011;65964;43.496;3.710;2023-11-19T05:40:27;6.90;;;3.65;;
71730;SDS011;65964;43.496;3.710;2023-11-19T05:42:53;14.48;;;6.60;;
71730;SDS011;65964;43.496;3.710;2023-11-19T05:45:19;9.38;;;5.10;;
71730;SDS011;65964;43.496;3.710;2023-11-19T05:47:45;7.97;;;4.10;;
71730;SDS011;65964;43.496;3.710;2023-11-19T05:50:11;7.22;;;4.20;;
71730;SDS011;65964;43.496;3.710;2023-11-19T05:52:37;8.55;;;3.70;;
71730;SDS011;65964;43.496;3.710;2023-11-19T05:55:03;7.00;;;3.47;;
71730;SDS011;65964;43.496;3.710;2023-11-19T05:57:34;7.75;;;3.40;;
71730;SDS011;65964;43.496;3.710;2023-11-19T06:00:00;7.28;;;3.60;;
71730;SDS011;65964;43.496;3.710;2023-11-19T06:02:26;7.15;;;3.53;;
71730;SDS011;65964;43.496;3.710;2023-11-19T06:04:52;7.88;;;3.47;;
71730;SDS011;65964;43.496;3.710;2023-11-19T06:07:18;8.52;;;3.65;;
71730;SDS011;65964;43.496;3.710;2023-11-19T06:09:45;7.38;;;3.10;;
71730;SDS011;65964;43.496;3.710;2023-11-19T06:12:11;6.05;;;3.45;;
71730;SDS011;65964;43.496;3.710;2023-11-19T06:14:39;6.53;;;3.25;;
71730;SDS011;65964;43.496;3.710;2023-11-19T06:17:06;6.95;;;3.20;;
71730;SDS011;65964;43.496;3.710;2023-11-19T06:19:33;7.63;;;3.40;;
71730;SDS011;65964;43.496;3.710;2023-11-19T06:21:59;9.13;;;3.13;;
71730;SDS011;65964;43.496;3.710;2023-11-19T06:24:25;8.68;;;3.35;;
71730;SDS011;65964;43.496;3.710;2023-11-19T06:26:51;8.02;;;3.60;;
71730;SDS011;65964;43.496;3.710;2023-11-19T06:29:17;7.57;;;3.92;;
71730;SDS011;65964;43.496;3.710;2023-11-19T06:31:44;9.35;;;3.20;;
71730;SDS011;65964;43.496;3.710;2023-11-19T06:34:13;7.22;;;3.45;;
71730;SDS011;65964;43.496;3.710;2023-11-19T06:36:39;7.85;;;3.70;;
71730;SDS011;65964;43.496;3.710;2023-11-19T06:39:05;7.93;;;3.65;;
71730;SDS011;65964;43.496;3.710;2023-11-19T06:41:31;8.93;;;4.05;;
71730;SDS011;65964;43.496;3.710;2023-11-19T06:43:57;8.75;;;3.95;;
71730;SDS011;65964;43.496;3.710;2023-11-19T06:46:24;10.40;;;4.50;;
71730;SDS011;65964;43.496;3.710;2023-11-19T06:48:50;9.57;;;4.38;;
71730;SDS011;65964;43.496;3.710;2023-11-19T06:51:16;11.07;;;4.72;;
71730;SDS011;65964;43.496;3.710;2023-11-19T06:53:42;9.18;;;5.78;;
71730;SDS011;65964;43.496;3.710;2023-11-19T06:58:44;9.15;;;4.57;;
71730;SDS011;65964;43.496;3.710;2023-11-19T07:01:10;8.23;;;3.65;;
71730;SDS011;65964;43.496;3.710;2023-11-19T07:03:37;8.88;;;3.85;;
71730;SDS011;65964;43.496;3.710;2023-11-19T07:06:03;11.65;;;5.28;;
71730;SDS011;65964;43.496;3.710;2023-11-19T07:08:30;8.15;;;4.85;;
71730;SDS011;65964;43.496;3.710;2023-11-19T07:10:56;10.40;;;4.55;;
71730;SDS011;65964;43.496;3.710;2023-11-19T07:13:22;8.80;;;4.05;;
71730;SDS011;65964;43.496;3.710;2023-11-19T07:15:48;8.40;;;3.80;;
71730;SDS011;65964;43.496;3.710;2023-11-19T07:18:14;8.60;;;3.13;;
71730;SDS011;65964;43.496;3.710;2023-11-19T07:20:40;6.63;;;2.88;;
71730;SDS011;65964;43.496;3.710;2023-11-19T07:23:07;7.40;;;2.92;;
71730;SDS011;65964;43.496;3.710;2023-11-19T07:25:33;6.80;;;3.03;;
71730;SDS011;65964;43.496;3.710;2023-11-19T07:28:00;5.75;;;3.33;;
71730;SDS011;65964;43.496;3.710;2023-11-19T07:30:29;11.15;;;5.85;;
71730;SDS011;65964;43.496;3.710;2023-11-19T07:32:55;26.95;;;19.83;;
71730;SDS011;65964;43.496;3.710;2023-11-19T07:35:21;10.00;;;5.70;;
71730;SDS011;65964;43.496;3.710;2023-11-19T07:37:48;13.23;;;7.10;;
71730;SDS011;65964;43.496;3.710;2023-11-19T07:40:15;7.63;;;3.97;;
71730;SDS011;65964;43.496;3.710;2023-11-19T07:42:41;10.70;;;5.35;;
71730;SDS011;65964;43.496;3.710;2023-11-19T07:45:07;9.00;;;4.55;;
71730;SDS011;65964;43.496;3.710;2023-11-19T07:47:33;13.40;;;6.78;;
71730;SDS011;65964;43.496;3.710;2023-11-19T07:49:59;10.55;;;5.10;;
71730;SDS011;65964;43.496;3.710;2023-11-19T07:52:25;10.55;;;5.30;;
71730;SDS011;65964;43.496;3.710;2023-11-19T07:54:51;8.15;;;3.50;;
71730;SDS011;65964;43.496;3.710;2023-11-19T07:57:18;6.00;;;3.10;;
71730;SDS011;65964;43.496;3.710;2023-11-19T07:59:44;8.60;;;3.80;;
71730;SDS011;65964;43.496;3.710;2023-11-19T08:02:10;8.73;;;2.75;;
71730;SDS011;65964;43.496;3.710;2023-11-19T08:04:36;5.95;;;3.13;;
71730;SDS011;65964;43.496;3.710;2023-11-19T08:07:04;5.28;;;3.40;;
71730;SDS011;65964;43.496;3.710;2023-11-19T08:09:31;5.05;;;2.10;;
71730;SDS011;65964;43.496;3.710;2023-11-19T08:11:58;5.50;;;2.60;;
71730;SDS011;65964;43.496;3.710;2023-11-19T08:14:24;4.72;;;2.38;;
71730;SDS011;65964;43.496;3.710;2023-11-19T08:16:50;4.22;;;2.17;;
71730;SDS011;65964;43.496;3.710;2023-11-19T08:19:16;6.43;;;3.00;;
71730;SDS011;65964;43.496;3.710;2023-11-19T08:21:42;8.57;;;2.80;;
71730;SDS011;65964;43.496;3.710;2023-11-19T08:24:08;4.82;;;2.30;;
71730;SDS011;65964;43.496;3.710;2023-11-19T08:26:34;8.77;;;3.47;;
71730;SDS011;65964;43.496;3.710;2023-11-19T08:29:00;9.52;;;3.35;;
71730;SDS011;65964;43.496;3.710;2023-11-19T08:31:26;8.07;;;3.25;;
71730;SDS011;65964;43.496;3.710;2023-11-19T08:33:52;8.15;;;3.70;;
71730;SDS011;65964;43.496;3.710;2023-11-19T08:36:18;7.07;;;3.00;;
71730;SDS011;65964;43.496;3.710;2023-11-19T08:38:44;5.32;;;2.50;;
71730;SDS011;65964;43.496;3.710;2023-11-19T08:41:11;10.50;;;3.45;;
71730;SDS011;65964;43.496;3.710;2023-11-19T08:43:37;9.38;;;4.43;;
71730;SDS011;65964;43.496;3.710;2023-11-19T08:46:04;8.52;;;3.90;;
71730;SDS011;65964;43.496;3.710;2023-11-19T08:48:34;8.95;;;3.10;;
71730;SDS011;65964;43.496;3.710;2023-11-19T08:51:00;8.82;;;2.92;;
71730;SDS011;65964;43.496;3.710;2023-11-19T08:53:26;6.35;;;2.80;;
71730;SDS011;65964;43.496;3.710;2023-11-19T08:55:52;7.05;;;2.90;;
71730;SDS011;65964;43.496;3.710;2023-11-19T08:58:18;20.77;;;9.45;;
71730;SDS011;65964;43.496;3.710;2023-11-19T09:00:44;10.32;;;5.25;;
71730;SDS011;65964;43.496;3.710;2023-11-19T09:03:10;20.73;;;10.43;;
71730;SDS011;65964;43.496;3.710;2023-11-19T09:05:36;12.55;;;5.65;;
71730;SDS011;65964;43.496;3.710;2023-11-19T09:08:03;13.60;;;5.43;;
71730;SDS011;65964;43.496;3.710;2023-11-19T09:10:29;15.40;;;7.50;;
71730;SDS011;65964;43.496;3.710;2023-11-19T09:12:55;19.80;;;8.82;;
71730;SDS011;65964;43.496;3.710;2023-11-19T09:15:21;20.60;;;11.65;;
71730;SDS011;65964;43.496;3.710;2023-11-19T09:17:47;24.45;;;12.57;;
71730;SDS011;65964;43.496;3.710;2023-11-19T09:20:13;15.57;;;8.90;;
71730;SDS011;65964;43.496;3.710;2023-11-19T09:22:40;23.48;;;12.23;;
71730;SDS011;65964;43.496;3.710;2023-11-19T09:25:06;17.85;;;10.27;;
71730;SDS011;65964;43.496;3.710;2023-11-19T09:27:33;37.40;;;19.77;;
71730;SDS011;65964;43.496;3.710;2023-11-19T09:29:59;30.13;;;17.52;;
71730;SDS011;65964;43.496;3.710;2023-11-19T09:32:25;26.05;;;14.88;;
71730;SDS011;65964;43.496;3.710;2023-11-19T09:34:51;17.58;;;10.98;;
71730;SDS011;65964;43.496;3.710;2023-11-19T09:37:17;18.58;;;11.52;;
71730;SDS011;65964;43.496;3.710;2023-11-19T09:39:43;19.40;;;10.15;;
71730;SDS011;65964;43.496;3.710;2023-11-19T09:42:09;13.85;;;7.28;;
71730;SDS011;65964;43.496;3.710;2023-11-19T09:44:37;10.95;;;6.43;;
71730;SDS011;65964;43.496;3.710;2023-11-19T09:47:03;12.43;;;5.45;;
71730;SDS011;65964;43.496;3.710;2023-11-19T09:49:29;10.30;;;5.55;;
71730;SDS011;65964;43.496;3.710;2023-11-19T09:51:56;12.82;;;5.30;;
71730;SDS011;65964;43.496;3.710;2023-11-19T09:54:22;9.70;;;5.15;;
71730;SDS011;65964;43.496;3.710;2023-11-19T09:56:48;6.60;;;3.33;;
71730;SDS011;65964;43.496;3.710;2023-11-19T09:59:14;9.70;;;4.30;;
71730;SDS011;65964;43.496;3.710;2023-11-19T10:01:40;50.65;;;6.95;;
71730;SDS011;65964;43.496;3.710;2023-11-19T10:04:07;8.82;;;3.30;;
71730;SDS011;65964;43.496;3.710;2023-11-19T10:06:33;8.60;;;3.63;;
71730;SDS011;65964;43.496;3.710;2023-11-19T10:08:59;5.35;;;2.05;;
71730;SDS011;65964;43.496;3.710;2023-11-19T10:11:25;4.70;;;2.08;;
71730;SDS011;65964;43.496;3.710;2023-11-19T10:13:53;2.33;;;1.42;;
71730;SDS011;65964;43.496;3.710;2023-11-19T10:16:19;2.90;;;1.70;;
71730;SDS011;65964;43.496;3.710;2023-11-19T10:18:45;2.90;;;1.60;;
71730;SDS011;65964;43.496;3.710;2023-11-19T10:21:12;5.90;;;2.95;;
71730;SDS011;65964;43.496;3.710;2023-11-19T10:26:15;8.35;;;3.47;;
71730;SDS011;65964;43.496;3.710;2023-11-19T10:28:41;6.15;;;3.20;;
71730;SDS011;65964;43.496;3.710;2023-11-19T10:31:12;8.75;;;3.35;;
71730;SDS011;65964;43.496;3.710;2023-11-19T10:33:38;5.85;;;3.05;;
71730;SDS011;65964;43.496;3.710;2023-11-19T10:36:04;6.93;;;2.75;;
71730;SDS011;65964;43.496;3.710;2023-11-19T10:38:30;5.70;;;2.40;;
71730;SDS011;65964;43.496;3.710;2023-11-19T10:40:57;6.00;;;3.63;;
71730;SDS011;65964;43.496;3.710;2023-11-19T10:43:24;4.70;;;2.60;;
71730;SDS011;65964;43.496;3.710;2023-11-19T10:45:50;4.38;;;2.53;;
71730;SDS011;65964;43.496;3.710;2023-11-19T10:48:17;8.27;;;3.67;;
71730;SDS011;65964;43.496;3.710;2023-11-19T10:50:43;7.55;;;4.10;;
71730;SDS011;65964;43.496;3.710;2023-11-19T10:53:11;6.10;;;2.17;;
71730;SDS011;65964;43.496;3.710;2023-11-19T10:55:41;3.33;;;2.00;;
71730;SDS011;65964;43.496;3.710;2023-11-19T10:58:07;3.30;;;2.00;;
71730;SDS011;65964;43.496;3.710;2023-11-19T11:00:38;3.70;;;2.13;;
71730;SDS011;65964;43.496;3.710;2023-11-19T11:03:25;3.17;;;1.58;;
71730;SDS011;65964;43.496;3.710;2023-11-19T11:05:53;3.13;;;1.70;;
71730;SDS011;65964;43.496;3.710;2023-11-19T11:08:19;3.38;;;1.73;;
71730;SDS011;65964;43.496;3.710;2023-11-19T11:10:55;3.40;;;1.95;;
71730;SDS011;65964;43.496;3.710;2023-11-19T11:13:22;2.40;;;1.70;;
71730;SDS011;65964;43.496;3.710;2023-11-19T11:15:49;5.25;;;1.90;;
71730;SDS011;65964;43.496;3.710;2023-11-19T11:18:15;3.85;;;1.92;;
71730;SDS011;65964;43.496;3.710;2023-11-19T11:20:43;6.22;;;2.50;;
71730;SDS011;65964;43.496;3.710;2023-11-19T11:28:39;4.85;;;2.40;;
71730;SDS011;65964;43.496;3.710;2023-11-19T11:36:31;7.85;;;3.30;;
71730;SDS011;65964;43.496;3.710;2023-11-19T11:39:04;10.18;;;5.25;;
71730;SDS011;65964;43.496;3.710;2023-11-19T11:41:32;7.13;;;3.33;;
71730;SDS011;65964;43.496;3.710;2023-11-19T11:43:58;6.22;;;2.40;;
71730;SDS011;65964;43.496;3.710;2023-11-19T11:49:06;3.88;;;1.88;;
71730;SDS011;65964;43.496;3.710;2023-11-19T11:56:39;7.82;;;3.10;;
71730;SDS011;65964;43.496;3.710;2023-11-19T11:59:27;4.13;;;2.00;;
71730;SDS011;65964;43.496;3.710;2023-11-19T12:02:00;3.58;;;1.92;;
71730;SDS011;65964;43.496;3.710;2023-11-19T12:04:27;5.70;;;2.28;;
71730;SDS011;65964;43.496;3.710;2023-11-19T12:07:13;5.43;;;2.67;;
71730;SDS011;65964;43.496;3.710;2023-11-19T12:12:17;6.53;;;2.20;;
71730;SDS011;65964;43.496;3.710;2023-11-19T12:20:04;4.78;;;1.90;;
71730;SDS011;65964;43.496;3.710;2023-11-19T12:24:59;8.50;;;2.42;;
71730;SDS011;65964;43.496;3.710;2023-11-19T12:27:26;5.97;;;2.00;;
71730;SDS011;65964;43.496;3.710;2023-11-19T12:29:53;8.70;;;4.05;;
71730;SDS011;65964;43.496;3.710;2023-11-19T12:32:22;6.10;;;2.03;;
71730;SDS011;65964;43.496;3.710;2023-11-19T12:34:48;4.85;;;2.50;;
71730;SDS011;65964;43.496;3.710;2023-11-19T12:37:13;8.00;;;3.40;;
71730;SDS011;65964;43.496;3.710;2023-11-19T12:39:40;7.18;;;3.40;;
71730;SDS011;65964;43.496;3.710;2023-11-19T12:42:06;6.55;;;2.50;;
71730;SDS011;65964;43.496;3.710;2023-11-19T12:44:32;5.13;;;2.40;;
71730;SDS011;65964;43.496;3.710;2023-11-19T12:49:28;7.53;;;2.75;;
71730;SDS011;65964;43.496;3.710;2023-11-19T12:51:54;4.57;;;2.20;;
71730;SDS011;65964;43.496;3.710;2023-11-19T12:54:31;6.30;;;2.97;;
71730;SDS011;65964;43.496;3.710;2023-11-19T12:56:57;7.07;;;2.55;;
71730;SDS011;65964;43.496;3.710;2023-11-19T12:59:23;4.03;;;1.85;;
71730;SDS011;65964;43.496;3.710;2023-11-19T13:01:54;4.32;;;1.95;;
71730;SDS011;65964;43.496;3.710;2023-11-19T13:04:20;5.43;;;2.45;;
71730;SDS011;65964;43.496;3.710;2023-11-19T13:06:46;7.43;;;2.03;;
71730;SDS011;65964;43.496;3.710;2023-11-19T13:09:28;5.10;;;1.70;;
71730;SDS011;65964;43.496;3.710;2023-11-19T13:11:54;3.13;;;2.10;;
71730;SDS011;65964;43.496;3.710;2023-11-19T13:14:35;4.80;;;1.80;;
71730;SDS011;65964;43.496;3.710;2023-11-19T13:17:02;6.53;;;1.90;;
71730;SDS011;65964;43.496;3.710;2023-11-19T13:19:28;5.35;;;2.22;;
71730;SDS011;65964;43.496;3.710;2023-11-19T13:21:54;6.35;;;2.40;;
71730;SDS011;65964;43.496;3.710;2023-11-19T13:24:20;4.32;;;1.80;;
71730;SDS011;65964;43.496;3.710;2023-11-19T13:26:46;4.43;;;1.80;;
71730;SDS011;65964;43.496;3.710;2023-11-19T13:29:12;3.92;;;1.90;;
71730;SDS011;65964;43.496;3.710;2023-11-19T13:31:39;5.38;;;1.90;;
71730;SDS011;65964;43.496;3.710;2023-11-19T13:34:05;2.78;;;1.80;;
71730;SDS011;65964;43.496;3.710;2023-11-19T13:36:33;6.25;;;1.80;;
71730;SDS011;65964;43.496;3.710;2023-11-19T13:38:59;4.80;;;1.70;;
71730;SDS011;65964;43.496;3.710;2023-11-19T13:41:26;4.57;;;2.00;;
71730;SDS011;65964;43.496;3.710;2023-11-19T13:43:52;4.75;;;2.00;;
71730;SDS011;65964;43.496;3.710;2023-11-19T13:46:18;5.05;;;2.10;;
71730;SDS011;65964;43.496;3.710;2023-11-19T13:48:45;6.78;;;2.10;;
71730;SDS011;65964;43.496;3.710;2023-11-19T13:51:11;5.97;;;2.80;;
71730;SDS011;65964;43.496;3.710;2023-11-19T13:53:37;7.88;;;2.45;;
71730;SDS011;65964;43.496;3.710;2023-11-19T13:56:03;6.15;;;2.70;;
71730;SDS011;65964;43.496;3.710;2023-11-19T13:58:29;4.95;;;2.45;;
71730;SDS011;65964;43.496;3.710;2023-11-19T14:00:55;7.43;;;2.58;;
71730;SDS011;65964;43.496;3.710;2023-11-19T14:03:22;6.32;;;2.30;;
71730;SDS011;65964;43.496;3.710;2023-11-19T14:05:49;14.10;;;4.50;;
71730;SDS011;65964;43.496;3.710;2023-11-19T14:08:17;15.32;;;8.38;;
71730;SDS011;65964;43.496;3.710;2023-11-19T14:10:43;9.35;;;4.70;;
71730;SDS011;65964;43.496;3.710;2023-11-19T14:13:09;9.13;;;4.07;;
71730;SDS011;65964;43.496;3.710;2023-11-19T14:15:36;12.48;;;4.70;;
71730;SDS011;65964;43.496;3.710;2023-11-19T14:18:02;8.90;;;4.15;;
71730;SDS011;65964;43.496;3.710;2023-11-19T14:20:28;7.47;;;3.10;;
71730;SDS011;65964;43.496;3.710;2023-11-19T14:22:54;9.05;;;3.13;;
71730;SDS011;65964;43.496;3.710;2023-11-19T14:25:20;5.78;;;2.50;;
71730;SDS011;65964;43.496;3.710;2023-11-19T14:27:48;4.90;;;2.10;;
71730;SDS011;65964;43.496;3.710;2023-11-19T14:30:14;7.40;;;2.40;;
71730;SDS011;65964;43.496;3.710;2023-11-19T14:32:41;6.47;;;2.25;;
71730;SDS011;65964;43.496;3.710;2023-11-19T14:35:09;5.65;;;2.00;;
71730;SDS011;65964;43.496;3.710;2023-11-19T14:37:35;6.80;;;2.50;;
71730;SDS011;65964;43.496;3.710;2023-11-19T14:40:01;6.43;;;2.28;;
71730;SDS011;65964;43.496;3.710;2023-11-19T14:42:32;7.28;;;2.50;;
71730;SDS011;65964;43.496;3.710;2023-11-19T14:44:58;5.93;;;2.25;;
71730;SDS011;65964;43.496;3.710;2023-11-19T14:47:24;5.30;;;2.42;;
71730;SDS011;65964;43.496;3.710;2023-11-19T14:49:50;5.57;;;2.00;;
71730;SDS011;65964;43.496;3.710;2023-11-19T14:52:16;6.32;;;2.38;;
71730;SDS011;65964;43.496;3.710;2023-11-19T14:54:42;6.35;;;2.28;;
71730;SDS011;65964;43.496;3.710;2023-11-19T14:57:08;6.97;;;2.55;;
71730;SDS011;65964;43.496;3.710;2023-11-19T14:59:35;5.65;;;2.90;;
71730;SDS011;65964;43.496;3.710;2023-11-19T15:02:01;9.98;;;3.72;;
71730;SDS011;65964;43.496;3.710;2023-11-19T15:04:27;11.38;;;3.33;;
71730;SDS011;65964;43.496;3.710;2023-11-19T15:06:56;9.43;;;3.53;;
71730;SDS011;65964;43.496;3.710;2023-11-19T15:09:22;8.88;;;2.97;;
71730;SDS011;65964;43.496;3.710;2023-11-19T15:11:48;7.65;;;3.10;;
71730;SDS011;65964;43.496;3.710;2023-11-19T15:14:14;8.82;;;3.00;;
71730;SDS011;65964;43.496;3.710;2023-11-19T15:16:42;10.65;;;3.47;;
71730;SDS011;65964;43.496;3.710;2023-11-19T15:19:08;5.95;;;2.58;;
71730;SDS011;65964;43.496;3.710;2023-11-19T15:21:34;5.10;;;2.53;;